Portada
METAR-TAF:

METAR-TAF

Aeroports :

Aeroport Internacional de Pequín

Pequín, Xina

latitud: 39-56N, longitud: 116-17E, altitud: 55 m

Observació

L'informe es va fer fa 37 minuts, a les 14:00 UTC
Vent calma
Temperatura 1°C
Humitat 47%
Pressió 1023 hPa
Visibilitat: 4000 m
calitja

METAR: ZBAA 231400Z 00000MPS 4000 HZ NSC 01/M09 Q1023 BECMG TL1540 2700 BR

Hora: 22:37 (14:37 UTC)

Pronòstic

L'informe es va fer fa 5 hores i 17 minuts, a les 09:20 UTC
Pronòstic vàlid del 23 a les 12 UTC al 24 a les 12 UTC
Vent 6 kt del Nord
Visibilitat: 5000 m
calitja

TAF: ZBAA 230920Z 2312/2412 36003MPS 5000 HZ NSC TX13/2407Z TNM03/21Z

Observacions i pronòstics meteorològics de més de 4000 aeroports (METAR i TAF).

Les estacions disponibles són els punts grocs i vermells al mapa.

Posi el ratolí al punt desitjat per veure el nom de l'estació.

Feu clic per veure les observacions i els pronòstics meteorològics.

Per canviar el mapa: feu clic els botons verds amb una creu de color negre per apropar; al botó verd amb un guió per allunyar la imatge; o en les fletxes verdes per a mapes adjacents.


METAR-TAF: